createdAt,value
2018-07-27T00:01:45.703Z,99.90
2018-07-27T00:04:14.009Z,99.90
2018-07-27T00:06:42.279Z,99.90
2018-07-27T00:09:12.434Z,99.90
2018-07-27T00:11:41.153Z,99.90
2018-07-27T00:14:09.451Z,99.90
2018-07-27T00:16:37.930Z,99.90
2018-07-27T00:21:34.755Z,99.90
2018-07-27T00:24:03.053Z,99.90
2018-07-27T00:26:31.379Z,99.90
2018-07-27T00:28:59.646Z,99.90
2018-07-27T00:31:27.921Z,99.90
2018-07-27T00:36:47.015Z,99.90
2018-07-27T00:39:15.295Z,99.90
2018-07-27T00:41:43.588Z,99.90
2018-07-27T00:44:11.860Z,99.90
2018-07-27T00:46:40.140Z,99.90
2018-07-27T00:49:08.419Z,99.90
2018-07-27T00:51:36.690Z,99.90
2018-07-27T00:54:05.095Z,99.90
2018-07-27T00:56:33.395Z,99.90
2018-07-27T00:59:01.667Z,99.90
2018-07-27T01:01:29.934Z,99.90
2018-07-27T01:03:58.367Z,99.90
2018-07-27T01:06:26.704Z,99.90
2018-07-27T01:08:54.991Z,99.90
2018-07-27T01:11:23.262Z,99.90
2018-07-27T01:13:51.701Z,99.90
2018-07-27T01:16:19.999Z,99.90
2018-07-27T01:18:48.280Z,99.90
2018-07-27T01:21:18.372Z,99.90
2018-07-27T01:23:46.656Z,99.90
2018-07-27T01:26:14.930Z,99.90
2018-07-27T01:28:43.258Z,99.90
2018-07-27T01:31:11.546Z,99.90
2018-07-27T01:33:39.859Z,99.90
2018-07-27T01:36:08.140Z,99.90
2018-07-27T01:38:36.419Z,99.90
2018-07-27T01:41:04.760Z,99.90
2018-07-27T01:43:33.298Z,99.90
2018-07-27T01:46:01.582Z,99.90
2018-07-27T01:48:29.856Z,99.90
2018-07-27T01:50:58.186Z,99.90
2018-07-27T01:53:26.486Z,99.90
2018-07-27T01:55:54.820Z,99.90
2018-07-27T01:58:23.105Z,99.90
2018-07-27T02:00:51.402Z,99.90
2018-07-27T02:05:47.774Z,99.90
2018-07-27T02:08:16.051Z,99.90
2018-07-27T02:10:44.343Z,99.90
2018-07-27T02:13:12.655Z,99.90
2018-07-27T02:15:41.482Z,99.90
2018-07-27T02:18:09.774Z,99.90
2018-07-27T02:20:38.082Z,99.90
2018-07-27T02:23:06.415Z,99.90
2018-07-27T02:25:34.682Z,99.90
2018-07-27T02:28:03.123Z,99.90
2018-07-27T02:30:31.398Z,99.90
2018-07-27T02:32:59.685Z,99.90
2018-07-27T02:35:27.968Z,99.90
2018-07-27T02:37:56.363Z,99.90
2018-07-27T02:40:24.647Z,99.90
2018-07-27T02:42:52.918Z,99.90
2018-07-27T02:45:21.190Z,99.90
2018-07-27T02:47:50.199Z,99.90
2018-07-27T02:50:19.633Z,99.90
2018-07-27T02:52:47.947Z,99.90
2018-07-27T02:55:16.347Z,99.90
2018-07-27T02:57:44.619Z,99.90
2018-07-27T03:00:12.890Z,99.90
2018-07-27T03:02:41.179Z,99.90
2018-07-27T03:05:09.494Z,99.90
2018-07-27T03:07:37.867Z,99.90
2018-07-27T03:10:06.651Z,99.90
2018-07-27T03:12:34.963Z,99.90
2018-07-27T03:15:03.294Z,99.90
2018-07-27T03:17:31.548Z,99.90
2018-07-27T03:19:59.808Z,99.90
2018-07-27T03:22:28.063Z,99.90
2018-07-27T03:24:56.317Z,99.90
2018-07-27T03:27:24.595Z,99.90
2018-07-27T03:29:52.931Z,99.90
2018-07-27T03:32:21.192Z,99.90
2018-07-27T03:34:49.449Z,99.90
2018-07-27T03:37:17.709Z,99.90
2018-07-27T03:42:14.097Z,99.90
2018-07-27T03:44:42.253Z,99.90
2018-07-27T03:47:10.517Z,99.90
2018-07-27T03:49:38.869Z,99.90
2018-07-27T03:52:07.159Z,99.90
2018-07-27T03:54:35.435Z,99.90
2018-07-27T03:57:03.691Z,99.90
2018-07-27T03:59:31.943Z,99.90
2018-07-27T04:02:00.293Z,99.90
2018-07-27T04:04:28.549Z,99.90
2018-07-27T04:06:56.843Z,99.90
2018-07-27T04:11:53.231Z,99.90
2018-07-27T04:14:21.547Z,99.90
2018-07-27T04:19:22.630Z,99.90
2018-07-27T04:21:50.876Z,99.90
2018-07-27T04:24:19.128Z,99.90
2018-07-27T04:26:47.450Z,99.90
2018-07-27T04:29:16.446Z,99.90
2018-07-27T04:31:44.723Z,99.90
2018-07-27T04:34:12.975Z,99.90
2018-07-27T04:36:41.219Z,99.90
2018-07-27T04:39:10.626Z,99.90
2018-07-27T04:41:38.986Z,99.90
2018-07-27T04:44:07.340Z,99.90
2018-07-27T04:46:35.635Z,99.90
2018-07-27T04:49:03.904Z,99.90
2018-07-27T04:51:32.372Z,99.90
2018-07-27T04:54:00.626Z,99.90
2018-07-27T04:56:33.910Z,99.90
2018-07-27T04:59:02.241Z,99.90
2018-07-27T05:01:30.529Z,99.90
2018-07-27T05:03:59.002Z,99.90
2018-07-27T05:06:27.262Z,99.90
2018-07-27T05:09:01.057Z,99.90
2018-07-27T05:11:29.448Z,99.90
2018-07-27T05:16:25.738Z,99.90
2018-07-27T05:18:54.037Z,99.90
2018-07-27T05:21:22.318Z,99.90
2018-07-27T05:23:50.617Z,99.90
2018-07-27T05:28:46.926Z,99.90
2018-07-27T05:31:15.191Z,99.90
2018-07-27T05:33:43.459Z,99.90
2018-07-27T05:36:11.735Z,99.90
2018-07-27T05:38:40.112Z,99.90
2018-07-27T05:41:08.467Z,99.90
2018-07-27T05:43:37.034Z,99.90
2018-07-27T05:46:05.742Z,99.90
2018-07-27T05:48:34.099Z,99.90
2018-07-27T05:51:02.347Z,99.90
2018-07-27T05:53:30.771Z,99.90
2018-07-27T05:55:59.066Z,99.90
2018-07-27T05:58:27.359Z,99.90
2018-07-27T06:00:55.665Z,99.90
2018-07-27T06:03:23.944Z,99.90
2018-07-27T06:05:52.227Z,99.90
2018-07-27T06:08:20.507Z,99.90
2018-07-27T06:10:48.754Z,99.90
2018-07-27T06:13:17.073Z,99.90
2018-07-27T06:15:45.348Z,99.90
2018-07-27T06:18:13.729Z,99.90
2018-07-27T06:20:41.980Z,99.90
2018-07-27T06:23:10.286Z,99.90
2018-07-27T06:25:38.651Z,99.90
2018-07-27T06:28:06.983Z,99.90
2018-07-27T06:30:35.247Z,99.90
2018-07-27T06:33:03.530Z,99.90
2018-07-27T06:35:31.778Z,99.90
2018-07-27T06:38:12.421Z,99.90
2018-07-27T06:40:40.705Z,99.90
2018-07-27T06:43:09.789Z,99.90
2018-07-27T06:45:38.782Z,99.90
2018-07-27T06:48:10.126Z,99.90
2018-07-27T06:50:39.513Z,99.90
2018-07-27T06:53:08.381Z,99.90
2018-07-27T06:55:36.608Z,99.90
2018-07-27T06:58:05.147Z,99.90
2018-07-27T07:00:33.388Z,99.90
2018-07-27T07:03:01.642Z,99.90
2018-07-27T07:05:29.901Z,99.90
2018-07-27T07:07:58.181Z,99.90
2018-07-27T07:10:26.469Z,99.90
2018-07-27T07:12:56.050Z,99.90
2018-07-27T07:15:25.133Z,99.90
2018-07-27T07:17:54.566Z,99.10
2018-07-27T07:20:23.542Z,96.10
2018-07-27T07:22:51.813Z,93.10
2018-07-27T07:25:20.177Z,91.80
2018-07-27T07:27:48.361Z,88.60
2018-07-27T07:30:16.632Z,90.30
2018-07-27T07:32:44.905Z,86.90
2018-07-27T07:35:13.189Z,79.30
2018-07-27T07:37:41.461Z,69.20
2018-07-27T07:40:10.445Z,59.60
2018-07-27T07:42:39.482Z,51.60
2018-07-27T07:45:10.774Z,49.00
2018-07-27T07:47:39.706Z,45.70
2018-07-27T07:50:08.475Z,41.20
2018-07-27T07:52:37.582Z,37.20
2018-07-27T07:55:06.030Z,35.90
2018-07-27T07:57:34.286Z,33.50
2018-07-27T08:00:02.588Z,32.20
2018-07-27T08:02:30.889Z,32.10
2018-07-27T08:04:59.185Z,31.50
2018-07-27T08:07:27.453Z,29.80
2018-07-27T08:09:55.740Z,30.10
2018-07-27T08:12:25.145Z,29.70
2018-07-27T08:17:43.989Z,29.60
2018-07-27T08:20:12.268Z,29.50
2018-07-27T08:22:40.582Z,31.00
2018-07-27T08:25:09.595Z,31.40
2018-07-27T08:27:38.396Z,29.60
2018-07-27T08:30:06.693Z,29.20
2018-07-27T08:32:34.969Z,29.60
2018-07-27T08:35:03.745Z,27.80
2018-07-27T08:37:32.234Z,29.10
2018-07-27T08:40:01.642Z,28.70
2018-07-27T08:42:29.969Z,28.50
2018-07-27T08:44:58.485Z,26.80
2018-07-27T08:47:34.975Z,26.70
2018-07-27T08:50:04.406Z,25.70
2018-07-27T08:52:32.717Z,27.60
2018-07-27T08:55:01.054Z,27.20
2018-07-27T08:57:29.896Z,26.20
2018-07-27T08:59:58.168Z,25.20
2018-07-27T09:02:26.465Z,27.30
2018-07-27T09:04:55.798Z,25.80
2018-07-27T09:07:24.729Z,25.30
2018-07-27T09:09:54.774Z,24.80
2018-07-27T09:12:23.402Z,24.50
2018-07-27T09:14:51.768Z,25.90
2018-07-27T09:17:21.185Z,25.80
2018-07-27T09:19:49.433Z,25.30
2018-07-27T09:22:17.696Z,24.30
2018-07-27T09:24:46.141Z,25.00
2018-07-27T09:27:14.515Z,24.20
2018-07-27T09:29:43.479Z,23.30
2018-07-27T09:32:12.161Z,23.90
2018-07-27T09:34:40.418Z,23.80
2018-07-27T09:37:09.437Z,24.00
2018-07-27T09:39:38.576Z,23.90
2018-07-27T09:42:08.220Z,23.90
2018-07-27T09:44:38.444Z,23.70
2018-07-27T09:47:08.074Z,23.00
2018-07-27T09:49:36.752Z,23.30
2018-07-27T09:52:05.496Z,22.50
2018-07-27T09:54:34.310Z,23.80
2018-07-27T09:57:03.667Z,24.60
2018-07-27T09:59:32.408Z,24.20
2018-07-27T10:02:01.293Z,25.90
2018-07-27T10:04:30.044Z,25.30
2018-07-27T10:07:00.446Z,24.50
2018-07-27T10:09:29.179Z,23.50
2018-07-27T10:11:58.176Z,22.00
2018-07-27T10:14:26.914Z,23.70
2018-07-27T10:16:56.747Z,23.20
2018-07-27T10:19:26.489Z,23.80
2018-07-27T10:21:55.780Z,23.20
2018-07-27T10:24:27.053Z,23.40
2018-07-27T10:26:56.287Z,24.70
2018-07-27T10:29:25.722Z,27.00
2018-07-27T10:31:54.667Z,27.60
2018-07-27T10:34:23.765Z,28.50
2018-07-27T10:36:52.042Z,29.30
2018-07-27T10:39:20.365Z,28.00
2018-07-27T10:41:48.855Z,28.40
2018-07-27T10:44:18.468Z,27.40
2018-07-27T10:46:47.144Z,26.30
2018-07-27T10:51:45.066Z,25.30
2018-07-27T10:54:13.313Z,26.70
2018-07-27T10:56:41.618Z,27.90
2018-07-27T10:59:10.187Z,26.00
2018-07-27T11:01:40.341Z,25.10
2018-07-27T11:04:09.184Z,26.20
2018-07-27T11:06:39.170Z,26.70
2018-07-27T11:09:10.676Z,27.30
2018-07-27T11:11:40.506Z,30.00
2018-07-27T11:14:11.242Z,30.20
2018-07-27T11:16:40.413Z,30.40
2018-07-27T11:19:09.480Z,32.00
2018-07-27T11:21:38.647Z,34.40
2018-07-27T11:24:08.428Z,36.10
2018-07-27T11:26:36.732Z,35.10
2018-07-27T11:29:04.968Z,37.90
2018-07-27T11:31:33.213Z,38.70
2018-07-27T11:34:01.581Z,39.80
2018-07-27T11:36:29.845Z,37.50
2018-07-27T11:38:58.121Z,41.40
2018-07-27T11:41:26.494Z,41.10
2018-07-27T11:43:55.828Z,40.00
2018-07-27T11:46:25.262Z,40.40
2018-07-27T11:48:55.533Z,40.30
2018-07-27T11:51:25.396Z,39.10
2018-07-27T11:53:55.244Z,39.90
2018-07-27T11:56:24.002Z,40.50
2018-07-27T11:58:53.819Z,38.40
2018-07-27T12:01:22.352Z,42.10
2018-07-27T12:03:51.161Z,39.00
2018-07-27T12:06:20.372Z,39.20
2018-07-27T12:08:48.853Z,38.80
2018-07-27T12:11:17.128Z,37.30
2018-07-27T12:13:45.424Z,39.40
2018-07-27T12:16:14.157Z,41.10
2018-07-27T12:18:51.573Z,39.20
2018-07-27T12:21:19.986Z,38.40
2018-07-27T12:23:48.584Z,39.00
2018-07-27T12:26:16.902Z,36.10
2018-07-27T12:28:46.064Z,36.30
2018-07-27T12:31:14.942Z,37.50
2018-07-27T12:33:43.953Z,35.10
2018-07-27T12:36:12.997Z,33.00
2018-07-27T12:38:41.304Z,32.90
2018-07-27T12:41:10.425Z,31.60
2018-07-27T12:46:08.794Z,31.20
2018-07-27T12:48:38.852Z,31.60
2018-07-27T12:51:07.860Z,32.80
2018-07-27T12:53:36.651Z,33.10
2018-07-27T12:56:05.501Z,32.70
2018-07-27T12:58:34.186Z,34.10
2018-07-27T13:01:04.906Z,32.00
2018-07-27T13:03:33.169Z,33.20
2018-07-27T13:06:01.779Z,32.30
2018-07-27T13:08:30.769Z,32.90
2018-07-27T13:10:59.177Z,32.70
2018-07-27T13:13:27.501Z,33.90
2018-07-27T13:15:56.268Z,31.80
2018-07-27T13:18:26.408Z,32.70
2018-07-27T13:20:56.872Z,35.60
2018-07-27T13:23:27.021Z,36.60
2018-07-27T13:28:44.957Z,40.50
2018-07-27T13:31:14.849Z,42.80
2018-07-27T13:34:01.526Z,44.50
2018-07-27T13:36:30.475Z,45.00
2018-07-27T13:38:59.490Z,45.90
2018-07-27T13:41:28.609Z,46.80
2018-07-27T13:44:10.700Z,47.00
2018-07-27T13:46:39.806Z,48.30
2018-07-27T13:49:08.183Z,48.60
2018-07-27T13:51:36.507Z,48.50
2018-07-27T13:54:06.122Z,47.40
2018-07-27T13:56:34.541Z,46.40
2018-07-27T13:59:02.814Z,46.90
2018-07-27T14:01:31.090Z,46.70
2018-07-27T14:06:28.292Z,47.20
2018-07-27T14:08:56.968Z,47.70
2018-07-27T14:11:27.246Z,47.70
2018-07-27T14:13:56.495Z,47.50
2018-07-27T14:17:12.933Z,47.00
2018-07-27T14:19:41.461Z,46.80
2018-07-27T14:24:39.426Z,47.50
2018-07-27T14:27:08.553Z,46.50
2018-07-27T14:29:36.840Z,46.60
2018-07-27T14:34:56.395Z,45.50
2018-07-27T14:37:25.657Z,44.60
2018-07-27T14:39:55.569Z,43.60
2018-07-27T14:42:25.381Z,43.00
2018-07-27T14:44:54.477Z,42.60
2018-07-27T14:49:51.553Z,44.30
2018-07-27T14:52:19.889Z,44.70
2018-07-27T14:54:48.147Z,44.60
2018-07-27T14:57:16.457Z,45.00
2018-07-27T14:59:44.771Z,45.60
2018-07-27T15:02:13.304Z,45.80
2018-07-27T15:04:41.979Z,44.50
2018-07-27T15:07:11.591Z,44.90
2018-07-27T15:09:41.326Z,44.40
2018-07-27T15:12:11.281Z,45.00
2018-07-27T15:14:41.290Z,45.20
2018-07-27T15:17:10.886Z,44.50
2018-07-27T15:19:39.229Z,43.80
2018-07-27T15:22:08.222Z,43.30
2018-07-27T15:24:36.718Z,43.90
2018-07-27T15:27:05.302Z,43.90
2018-07-27T15:29:34.404Z,43.30
2018-07-27T15:32:03.490Z,42.90
2018-07-27T15:34:31.765Z,44.10
2018-07-27T15:37:00.620Z,42.90
2018-07-27T15:39:29.623Z,43.00
2018-07-27T15:41:58.594Z,42.30
2018-07-27T15:44:27.862Z,41.80
2018-07-27T15:46:56.740Z,43.00
2018-07-27T15:49:27.133Z,42.90
2018-07-27T15:51:56.583Z,44.10
2018-07-27T15:57:17.012Z,43.60
2018-07-27T15:59:46.020Z,44.40
2018-07-27T16:02:14.972Z,45.40
2018-07-27T16:04:43.674Z,45.40
2018-07-27T16:07:12.317Z,46.30
2018-07-27T16:09:42.074Z,45.70
2018-07-27T16:12:10.406Z,45.50
2018-07-27T16:14:39.433Z,45.90
2018-07-27T16:17:08.419Z,45.90
2018-07-27T16:19:37.468Z,45.50
2018-07-27T16:22:06.499Z,46.40
2018-07-27T16:24:35.585Z,44.10
2018-07-27T16:27:04.402Z,43.80
2018-07-27T16:29:33.552Z,43.20
2018-07-27T16:32:02.455Z,43.10
2018-07-27T16:34:31.562Z,43.40
2018-07-27T16:37:00.522Z,42.60
2018-07-27T16:39:29.267Z,44.10
2018-07-27T16:41:58.589Z,44.50
2018-07-27T16:44:27.424Z,44.30
2018-07-27T16:46:56.323Z,44.80
2018-07-27T16:49:25.239Z,44.80
2018-07-27T16:51:54.155Z,44.60
2018-07-27T16:54:23.442Z,44.60
2018-07-27T16:56:52.441Z,45.70
2018-07-27T16:59:21.457Z,46.40
2018-07-27T17:01:50.674Z,46.70
2018-07-27T17:04:19.860Z,47.60
2018-07-27T17:06:48.906Z,48.00
2018-07-27T17:09:17.720Z,48.20
2018-07-27T17:11:46.671Z,48.30
2018-07-27T17:16:44.260Z,49.30
2018-07-27T17:19:13.495Z,50.50
2018-07-27T17:21:44.152Z,50.10
2018-07-27T17:24:12.575Z,50.70
2018-07-27T17:26:41.428Z,50.80
2018-07-27T17:29:10.716Z,51.40
2018-07-27T17:31:39.797Z,51.90
2018-07-27T17:34:08.976Z,52.80
2018-07-27T17:36:37.943Z,53.40
2018-07-27T17:44:27.269Z,54.30
2018-07-27T17:46:55.649Z,54.60
2018-07-27T17:49:24.244Z,54.70
2018-07-27T17:51:52.524Z,54.80
2018-07-27T17:54:20.808Z,54.80
2018-07-27T17:56:57.734Z,54.60
2018-07-27T17:59:26.107Z,55.00
2018-07-27T18:01:54.382Z,55.10
2018-07-27T18:04:22.724Z,55.60
2018-07-27T18:06:51.007Z,56.20
2018-07-27T18:09:19.262Z,56.20
2018-07-27T18:11:47.559Z,58.10
2018-07-27T18:14:15.978Z,59.80
2018-07-27T18:16:44.232Z,58.90
2018-07-27T18:19:12.500Z,61.10
2018-07-27T18:21:40.816Z,61.70
2018-07-27T18:24:09.207Z,61.80
2018-07-27T18:26:37.720Z,62.60
2018-07-27T18:29:06.094Z,61.70
2018-07-27T18:31:34.390Z,62.30
2018-07-27T18:34:02.750Z,62.20
2018-07-27T18:36:31.127Z,64.00
2018-07-27T18:38:59.446Z,65.70
2018-07-27T18:41:28.075Z,67.30
2018-07-27T18:43:56.519Z,66.00
2018-07-27T18:46:24.974Z,68.10
2018-07-27T18:48:53.504Z,71.10
2018-07-27T18:51:21.865Z,73.30
2018-07-27T18:53:50.994Z,76.50
2018-07-27T18:56:20.046Z,79.90
2018-07-27T18:58:48.410Z,82.90
2018-07-27T19:01:16.886Z,85.80
2018-07-27T19:03:45.924Z,90.00
2018-07-27T19:06:14.868Z,91.10
2018-07-27T19:08:43.669Z,91.90
2018-07-27T19:11:12.857Z,93.30
2018-07-27T19:16:11.142Z,97.20
2018-07-27T19:18:40.208Z,97.20
2018-07-27T19:21:09.605Z,97.70
2018-07-27T19:23:38.876Z,98.20
2018-07-27T19:26:07.586Z,99.90
2018-07-27T19:28:36.600Z,99.90
2018-07-27T19:31:05.508Z,99.90
2018-07-27T19:33:34.478Z,99.90
2018-07-27T19:36:03.580Z,99.90
2018-07-27T19:38:32.497Z,99.90
2018-07-27T19:41:01.565Z,99.90
2018-07-27T19:43:30.512Z,99.90
2018-07-27T19:45:59.567Z,99.90
2018-07-27T19:50:57.523Z,99.90
2018-07-27T19:53:26.259Z,99.90
2018-07-27T19:55:55.737Z,99.90
2018-07-27T19:58:24.611Z,99.90
2018-07-27T20:03:44.629Z,99.90
2018-07-27T20:06:13.564Z,99.90
2018-07-27T20:08:41.903Z,99.90
2018-07-27T20:11:10.360Z,99.90
2018-07-27T20:13:38.807Z,99.90
2018-07-27T20:16:07.083Z,99.90
2018-07-27T20:18:35.453Z,99.90
2018-07-27T20:21:03.864Z,99.90
2018-07-27T20:23:32.150Z,99.90
2018-07-27T20:26:00.583Z,99.90
2018-07-27T20:28:29.014Z,99.90
2018-07-27T20:30:57.362Z,99.90
2018-07-27T20:33:25.655Z,99.90
2018-07-27T20:35:53.958Z,99.90
2018-07-27T20:38:22.259Z,99.90
2018-07-27T20:40:50.700Z,99.90
2018-07-27T20:43:19.007Z,99.90
2018-07-27T20:45:47.285Z,99.90
2018-07-27T20:48:15.687Z,99.90
2018-07-27T20:50:44.023Z,99.90
2018-07-27T20:53:12.430Z,99.90
2018-07-27T20:55:40.758Z,99.90
2018-07-27T20:58:09.049Z,99.90
2018-07-27T21:00:37.302Z,99.90
2018-07-27T21:03:05.632Z,99.90
2018-07-27T21:05:33.898Z,99.90
2018-07-27T21:08:02.182Z,99.90
2018-07-27T21:12:58.499Z,99.90
2018-07-27T21:15:26.807Z,99.90
2018-07-27T21:17:55.196Z,99.90
2018-07-27T21:22:51.648Z,99.90
2018-07-27T21:25:19.926Z,99.90
2018-07-27T21:27:48.259Z,99.90
2018-07-27T21:30:16.591Z,99.90
2018-07-27T21:33:04.948Z,99.90
2018-07-27T21:35:33.223Z,99.90
2018-07-27T21:38:01.518Z,99.90
2018-07-27T21:40:29.792Z,99.90
2018-07-27T21:42:58.063Z,99.90
2018-07-27T21:45:26.361Z,99.90
2018-07-27T21:47:54.690Z,99.90
2018-07-27T21:50:22.970Z,99.90
2018-07-27T21:52:51.372Z,99.90
2018-07-27T21:55:19.752Z,99.90
2018-07-27T21:57:48.099Z,99.90
2018-07-27T22:00:16.365Z,99.90
2018-07-27T22:02:44.672Z,99.90
2018-07-27T22:05:12.949Z,99.90
2018-07-27T22:07:41.296Z,99.90
2018-07-27T22:12:56.146Z,99.90
2018-07-27T22:15:25.390Z,99.90
2018-07-27T22:20:44.622Z,99.90
2018-07-27T22:23:12.909Z,99.90
2018-07-27T22:25:41.185Z,99.90
2018-07-27T22:28:09.505Z,99.90
2018-07-27T22:30:37.790Z,99.90
2018-07-27T22:33:06.106Z,99.90
2018-07-27T22:35:34.454Z,99.90
2018-07-27T22:38:02.746Z,99.90
2018-07-27T22:40:31.086Z,99.90
2018-07-27T22:42:59.321Z,99.90
2018-07-27T22:45:27.606Z,99.90
2018-07-27T22:47:55.974Z,99.90
2018-07-27T22:50:24.230Z,99.90
2018-07-27T22:52:52.530Z,99.90
2018-07-27T22:55:20.870Z,99.90
2018-07-27T22:57:49.141Z,99.90
2018-07-27T23:00:17.507Z,99.90
2018-07-27T23:02:45.950Z,99.90
2018-07-27T23:05:14.210Z,99.90
2018-07-27T23:07:42.477Z,99.90
2018-07-27T23:10:11.264Z,99.90
2018-07-27T23:12:39.982Z,99.90
2018-07-27T23:15:09.794Z,99.90
2018-07-27T23:17:38.122Z,99.90
2018-07-27T23:20:09.286Z,99.90
2018-07-27T23:22:37.592Z,99.90
2018-07-27T23:25:06.329Z,99.90
2018-07-27T23:27:39.450Z,99.90
2018-07-27T23:30:09.934Z,99.90
2018-07-27T23:32:38.258Z,99.90
2018-07-27T23:35:06.593Z,99.90
2018-07-27T23:37:34.976Z,99.90
2018-07-27T23:40:03.304Z,99.90
2018-07-27T23:42:31.622Z,99.90
2018-07-27T23:44:59.927Z,99.90
2018-07-27T23:47:28.259Z,99.90
2018-07-27T23:50:14.707Z,99.90
2018-07-27T23:52:43.035Z,99.90
2018-07-27T23:55:11.310Z,99.90
2018-07-27T23:57:39.738Z,99.90
